x

West Sea Otter (46204) Wave Buoy

5:00am - Wed 23rd Apr 2014 All times are PDT. -7 hours from GMT.

  • Sig Wave height 6.6ft
  • Peak Period 11s
  • Wind
    9mph, 11mph gusts
  • Air Temp 47°f
  • Sea Pressure 1008.4mb
  • West Sea Otter
  • West Sea Otter

More Historic Weather Station data

Upgrade to MSW Pro to gain access to the past 30 days of data for over 8000 Wavebouys and Weather Stations around the globe.

Join Pro

Comparision Forecast

View Surf forecast
   
Wed 04/23 5:00am 6.5ft 11s 9 11 mph 1008.4mb 47f
4:00am 7ft 12s 13 16 mph 1008.2mb 47f
3:00am 7ft 12s 13 16 mph 1008mb 47f
2:00am 8ft 12s 13 16 mph 1008.3mb 47f
1:00am 8ft 13s 11 13 mph 1008.5mb 47f
12:00am 7ft 12s 13 16 mph 1008.4mb 47f
Tue 04/22 11:00pm 8ft 12s 13 18 mph 1008.2mb 46f
10:00pm 7ft 13s 13 16 mph 1008.2mb 46f
9:00pm 7ft 12s 16 18 mph 1008.1mb 46f
7:00pm 7.5ft 13s 16 18 mph 1007.7mb 46f
6:00pm 7.5ft 14s 9 11 mph 1008.2mb 47f
5:00pm 7ft 14s 9 13 mph 1008.4mb 46f
4:00pm 7ft 12s 7 9 mph 1008.8mb 46f
3:00pm 7ft 14s 4 7 mph 1009.4mb 46f
2:00pm 6.5ft 13s 4 7 mph 1009.3mb 45f
1:00pm 7ft 13s 9
mph
1009.3mb 44f
12:00pm 7ft 13s 9 11 mph 1009.4mb 44f
11:00am 7ft 14s 9 13 mph 1009.2mb 43f
10:00am 7ft 14s 11 13 mph 1009.1mb 41f
9:00am 7ft 12s 11 13 mph 1009.2mb 42f
8:00am 8ft 12s 11 16 mph 1009.2mb 44f
7:00am 7.5ft 11s 7 9 mph 1009.2mb 45f
6:00am 8ft 13s 4 9 mph 1009.7mb 45f
5:00am 8ft 13s 4 7 mph 1010.1mb 45f
4:00am 8.5ft 13s 2 4 mph 1010.7mb 45f
3:00am 8.5ft 13s 2
mph
1011.2mb 45f
2:00am 8.5ft 12s  -  2 mph 1011.8mb 45f
1:00am 8.5ft 12s  -  2 mph 1012.5mb 45f
12:00am 10ft 13s  -  4 mph 1012.6mb 46f
Mon 04/21 11:00pm 10ft 12s  -  2 mph 1013mb 46f
10:00pm 9ft 10s  -  4 mph 1013.3mb 46f
9:00pm 8.5ft 13s  -  2 mph 1013.9mb 46f
8:00pm 10ft 12s  -  2 mph 1014.1mb 47f
7:00pm 10ft 13s 2 4 mph 1014.5mb 49f
6:00pm 10.5ft 12s 2 4 mph 1015mb 48f
5:00pm 11ft 13s 4 7 mph 1015.6mb 47f
4:00pm 10ft 13s 7 9 mph 1016mb 47f
3:00pm 10ft 12s 7 11 mph 1016.4mb 47f
2:00pm 10ft 13s 7 11 mph 1016.7mb 47f
1:00pm 10ft 11s 7 9 mph 1017.2mb 47f
12:00pm 9.5ft 14s 9 11 mph 1017.5mb 46f
11:00am 10ft 12s 11 13 mph 1017.3mb 46f
10:00am 10ft 12s 9 13 mph 1017.4mb 46f
9:00am 11.5ft 14s 11 13 mph 1017.5mb 46f
8:00am 11.5ft 12s 13 18 mph 1017.4mb 46f
7:00am 12ft 13s 13 18 mph 1017.4mb 46f
6:00am 13ft 13s 11 13 mph 1017.5mb 44f
5:00am 12ft 14s 20 27 mph 1017.4mb 44f
4:00am 12.5ft 14s 13 18 mph 1017.6mb 46f
3:00am 12ft 12s 16 18 mph 1017.7mb 46f
2:00am 12ft 10s 18 22 mph 1017.6mb 46f
1:00am 11ft 12s 16 20 mph 1017.3mb 47f
12:00am 12ft 12s 20 27 mph 1016.9mb 46f
Sun 04/20 11:00pm 11.5ft 11s 20 27 mph 1016.4mb 46f
9:00pm 12ft 14s 25 29 mph 1015.3mb 45f
8:00pm 11ft 14s 27 34 mph 1014.3mb 46f
7:00pm 12.5ft 14s 22 31 mph 1014.9mb 44f
6:00pm 13ft 14s 29 36 mph 1014.1mb 45f
5:00pm 15ft 14s 29 40 mph 1014mb 45f
4:00pm 16.5ft 14s 27 34 mph 1013.5mb 46f
1:00pm 18ft 14s 40 49 mph 1011.4mb 47f
12:00pm 17ft 13s 40 49 mph 1011.7mb 47f
11:00am 18ft 14s 40 49 mph 1012mb 47f
10:00am 17ft 15s 38 47 mph 1012.7mb 47f
9:00am 20ft 15s 34 43 mph 1013.7mb 47f
8:00am 19ft 16s 34 43 mph 1014mb 46f
7:00am 19.5ft 15s 31 38 mph 1014.2mb 46f
6:00am  -   -  29
mph
1014.6mb 46f
5:00am 23.5ft 17s 25 34 mph 1015mb 46f
4:00am 20.5ft 18s 25 31 mph 1015.2mb 47f
3:00am 22ft 17s 20 25 mph 1015.2mb 47f
2:00am 21.5ft 15s 20 25 mph 1014.8mb 47f
1:00am 23ft 17s 20 29 mph 1014.1mb 48f
12:00am 20.5ft 17s 20 25 mph 1013.4mb 47f
Sat 04/19 11:00pm 19.5ft 15s 18 25 mph 1012.3mb 48f
10:00pm 20.5ft 14s 25 31 mph 1011.3mb 46f
9:00pm 19.5ft 14s 20 25 mph 1009.8mb 48f
8:00pm 18ft 14s 22 27 mph 1008.1mb 47f
7:00pm 14.5ft 11s 22 27 mph 1006.8mb 47f
6:00pm 12.5ft 11s 25 29 mph 1005.2mb 47f
5:00pm 13ft 11s 25 31 mph 1003.4mb 47f
4:00pm 12ft 12s 25 29 mph 1001.6mb 47f
3:00pm 13ft 11s 27 34 mph 1000mb 47f
2:00pm 13ft 11s 31 36 mph 998.5mb 46f